< < Back
Terminal Aerodrome Forecast


Current Version              Previous Versions:   1  2  3  4  5  6  7  8  9  

Terminal Aerodrome Forecast

080
FTUS44 KHUN 021120
TAFHSV
TAF
KHSV 021120Z 0212/0312 04003KT P6SM FEW250
     FM021600 36007KT P6SM FEW250
     FM030000 VRB03KT P6SM SKC=



Latest METAR

682
SAUS80 KWBC 030300
MTRHSV
METAR KHSV 030253Z 00000KT 10SM SCT250 24/17 A2991 RMK AO2 SLP120
T02390167 53004


USA.gov is the U.S. government's official web portal to all federal, state and local government web resources and services.